Time;durP1;ratioP1;P1;durP2;ratioP2;P2;SDS_P1;SDS_P2;PMS_P1;PMS_P2;Temp;Humidity;BMP_temperature;BMP_pressure;BME280_temperature;BME280_humidity;BME280_pressure;Samples;Min_cycle;Max_cycle;Signal;HPM_P1;HPM_P2
2023/05/21 00:02:17;;;;;;;9.57;7.53;;;;;;;;;;5052681;28;20038;-79
2023/05/21 00:04:44;;;;;;;11.07;7.68;;;;;;;;;;5037080;28;20053;-79
2023/05/21 00:07:11;;;;;;;9.35;7.50;;;;;;;;;;5036721;28;20508;-77
2023/05/21 00:09:38;;;;;;;10.32;7.63;;;;;;;;;;5037365;28;20045;-78
2023/05/21 00:12:05;;;;;;;10.30;7.70;;;;;;;;;;5036131;28;20073;-77
2023/05/21 00:14:34;;;;;;;10.15;7.65;;;;;;;;;;5036144;28;20197;-78
2023/05/21 00:17:00;;;;;;;10.00;7.30;;;;;;;;;;5037760;28;20049;-78
2023/05/21 00:19:27;;;;;;;9.70;7.35;;;;;;;;;;5038479;28;20141;-77
2023/05/21 00:21:54;;;;;;;11.10;7.35;;;;;;;;;;5037179;28;20185;-76
2023/05/21 00:24:21;;;;;;;10.15;7.90;;;;;;;;;;5037496;28;20080;-79
2023/05/21 00:26:51;;;;;;;10.45;7.72;;;;;;;;;;5037736;28;20081;-78
2023/05/21 00:29:17;;;;;;;9.32;7.55;;;;;;;;;;5038032;28;20102;-78
2023/05/21 00:31:45;;;;;;;11.10;7.13;;;;;;;;;;5036980;28;20073;-78
2023/05/21 00:34:13;;;;;;;9.77;7.43;;;;;;;;;;5038699;28;20046;-78
2023/05/21 00:36:44;;;;;;;13.23;7.15;;;;;;;;;;5038428;28;20061;-78
2023/05/21 00:39:10;;;;;;;8.73;7.25;;;;;;;;;;5038836;28;20064;-76
2023/05/21 00:41:38;;;;;;;10.65;7.50;;;;;;;;;;5036988;28;20460;-77
2023/05/21 00:44:05;;;;;;;10.23;7.78;;;;;;;;;;5040557;28;20042;-77
2023/05/21 00:46:32;;;;;;;10.38;7.18;;;;;;;;;;5035835;28;20084;-77
2023/05/21 00:49:01;;;;;;;9.55;7.07;;;;;;;;;;5038826;28;20053;-77
2023/05/21 00:51:29;;;;;;;9.55;7.28;;;;;;;;;;5036313;28;20045;-78
2023/05/21 00:53:56;;;;;;;15.25;7.30;;;;;;;;;;5035983;28;20072;-76
2023/05/21 00:56:25;;;;;;;9.18;7.10;;;;;;;;;;5035737;28;20052;-77
2023/05/21 00:58:52;;;;;;;10.60;7.30;;;;;;;;;;5035951;28;20412;-77
2023/05/21 01:01:19;;;;;;;8.88;6.95;;;;;;;;;;5036333;28;20041;-78
2023/05/21 01:03:47;;;;;;;11.48;6.93;;;;;;;;;;5036050;28;20048;-76
2023/05/21 01:06:15;;;;;;;8.77;6.55;;;;;;;;;;5035848;28;20049;-77
2023/05/21 01:08:42;;;;;;;9.23;7.70;;;;;;;;;;5035825;28;20045;-76
2023/05/21 01:11:11;;;;;;;9.52;6.90;;;;;;;;;;5036517;28;20119;-78
2023/05/21 01:13:40;;;;;;;8.35;6.68;;;;;;;;;;5035563;28;20042;-77
2023/05/21 01:16:08;;;;;;;10.10;7.17;;;;;;;;;;5035302;28;20056;-76
2023/05/21 01:18:36;;;;;;;8.80;7.00;;;;;;;;;;5035263;28;20282;-76
2023/05/21 01:21:03;;;;;;;9.27;7.38;;;;;;;;;;5035591;28;20049;-77
2023/05/21 01:23:31;;;;;;;8.95;6.82;;;;;;;;;;5035387;28;20140;-77
2023/05/21 01:25:58;;;;;;;9.07;7.18;;;;;;;;;;5035597;28;20106;-78
2023/05/21 01:28:25;;;;;;;9.32;6.75;;;;;;;;;;5035574;28;20046;-77
2023/05/21 01:30:52;;;;;;;8.63;6.95;;;;;;;;;;5035302;28;20046;-76
2023/05/21 01:33:24;;;;;;;8.75;6.90;;;;;;;;;;5035252;28;20051;-78
2023/05/21 01:35:57;;;;;;;9.40;6.30;;;;;;;;;;5035247;28;20060;-77
2023/05/21 01:38:29;;;;;;;10.55;7.15;;;;;;;;;;5035435;28;20482;-77
2023/05/21 01:41:02;;;;;;;9.48;6.45;;;;;;;;;;5035723;28;20073;-77
2023/05/21 01:43:34;;;;;;;8.02;6.68;;;;;;;;;;5035014;28;20053;-77
2023/05/21 01:46:02;;;;;;;8.30;6.68;;;;;;;;;;5035380;28;20057;-77
2023/05/21 01:48:30;;;;;;;10.40;6.78;;;;;;;;;;5035100;28;20136;-77
2023/05/21 01:51:00;;;;;;;8.60;6.63;;;;;;;;;;5035506;28;20115;-77
2023/05/21 01:53:27;;;;;;;;;;;;;;;;;;5035600;28;20472;-77
2023/05/21 01:55:54;;;;;;;10.30;7.05;;;;;;;;;;5035307;28;19921;-77
2023/05/21 01:58:23;;;;;;;10.30;6.53;;;;;;;;;;5037219;28;20052;-80
2023/05/21 02:00:50;;;;;;;7.65;6.32;;;;;;;;;;5038197;28;20049;-78
2023/05/21 02:03:17;;;;;;;8.93;6.85;;;;;;;;;;5039864;28;20049;-79
2023/05/21 02:05:43;;;;;;;8.23;6.25;;;;;;;;;;5040207;28;20085;-78
2023/05/21 02:08:11;;;;;;;9.32;7.15;;;;;;;;;;5038991;28;20588;-79
2023/05/21 02:10:38;;;;;;;8.25;6.22;;;;;;;;;;5040777;28;20369;-78
2023/05/21 02:13:05;;;;;;;10.63;6.65;;;;;;;;;;5039975;28;20101;-79
2023/05/21 02:15:33;;;;;;;9.77;6.57;;;;;;;;;;5039356;28;20105;-78
2023/05/21 02:18:00;;;;;;;9.25;6.80;;;;;;;;;;5039246;28;20550;-77
2023/05/21 02:20:27;;;;;;;8.40;6.72;;;;;;;;;;5038958;28;20091;-78
2023/05/21 02:22:53;;;;;;;8.60;6.32;;;;;;;;;;5038451;28;20075;-79
2023/05/21 02:25:20;;;;;;;8.75;6.65;;;;;;;;;;5037989;28;20054;-77
2023/05/21 02:27:47;;;;;;;9.15;6.82;;;;;;;;;;5036050;28;20045;-78
2023/05/21 02:30:15;;;;;;;8.98;6.47;;;;;;;;;;5037314;28;20080;-79
2023/05/21 02:32:43;;;;;;;8.57;6.93;;;;;;;;;;5036904;28;20045;-78
2023/05/21 02:35:12;;;;;;;8.25;6.25;;;;;;;;;;5035993;28;20056;-77
2023/05/21 02:37:40;;;;;;;8.70;6.30;;;;;;;;;;5036993;28;20076;-79
2023/05/21 02:40:08;;;;;;;10.02;7.35;;;;;;;;;;5037346;28;20071;-78
2023/05/21 02:42:38;;;;;;;7.95;6.53;;;;;;;;;;5037599;28;20046;-78
2023/05/21 02:45:05;;;;;;;8.90;6.47;;;;;;;;;;5037879;28;20046;-77
2023/05/21 02:47:32;;;;;;;7.97;6.50;;;;;;;;;;5049193;28;20045;-79
2023/05/21 02:50:00;;;;;;;8.38;6.18;;;;;;;;;;5057693;28;20139;-79
2023/05/21 02:52:27;;;;;;;9.60;6.35;;;;;;;;;;5057296;28;20056;-77
2023/05/21 02:54:54;;;;;;;9.52;7.05;;;;;;;;;;5057636;28;20426;-78
2023/05/21 02:57:20;;;;;;;8.82;6.72;;;;;;;;;;5057975;28;20136;-78
2023/05/21 02:59:47;;;;;;;9.55;6.75;;;;;;;;;;5057749;28;20132;-78
2023/05/21 03:02:14;;;;;;;10.38;6.53;;;;;;;;;;5058310;28;20149;-78
2023/05/21 03:04:44;;;;;;;10.27;6.97;;;;;;;;;;5058053;28;20414;-79
2023/05/21 03:07:13;;;;;;;9.88;6.75;;;;;;;;;;5058112;28;20064;-79
2023/05/21 03:09:40;;;;;;;8.45;6.50;;;;;;;;;;5057038;28;20045;-79
2023/05/21 03:12:08;;;;;;;8.63;6.75;;;;;;;;;;5057246;28;20049;-78
2023/05/21 03:14:35;;;;;;;8.30;6.20;;;;;;;;;;5057165;28;20051;-78
2023/05/21 03:17:04;;;;;;;8.82;6.65;;;;;;;;;;5057833;28;20041;-78
2023/05/21 03:19:33;;;;;;;9.68;6.63;;;;;;;;;;5057600;28;20051;-80
2023/05/21 03:22:00;;;;;;;9.98;6.90;;;;;;;;;;5057260;28;20488;-78
2023/05/21 03:24:29;;;;;;;8.60;6.85;;;;;;;;;;5058030;28;20096;-79
2023/05/21 03:26:56;;;;;;;8.38;6.45;;;;;;;;;;5057789;28;20432;-79
2023/05/21 03:29:22;;;;;;;9.40;7.07;;;;;;;;;;5057044;28;20041;-78
2023/05/21 03:31:50;;;;;;;9.57;6.90;;;;;;;;;;5057832;28;20045;-79
2023/05/21 03:34:18;;;;;;;8.57;6.45;;;;;;;;;;5057959;28;20064;-78
2023/05/21 03:36:45;;;;;;;9.40;6.38;;;;;;;;;;5056864;28;20052;-79
2023/05/21 03:39:12;;;;;;;9.35;6.55;;;;;;;;;;5056817;28;20128;-80
2023/05/21 03:41:40;;;;;;;10.77;6.82;;;;;;;;;;5057797;28;20415;-77
2023/05/21 03:44:07;;;;;;;9.13;7.07;;;;;;;;;;5056738;28;20045;-79
2023/05/21 03:46:33;;;;;;;9.82;6.60;;;;;;;;;;5056953;28;20072;-80
2023/05/21 03:49:00;;;;;;;9.85;6.50;;;;;;;;;;5057553;28;20045;-80
2023/05/21 03:51:26;;;;;;;9.18;6.78;;;;;;;;;;5059710;28;20109;-78
2023/05/21 03:53:53;;;;;;;9.70;7.05;;;;;;;;;;5058895;28;20083;-80
2023/05/21 03:56:20;;;;;;;8.13;6.38;;;;;;;;;;5057470;28;20120;-78
2023/05/21 03:58:48;;;;;;;9.32;7.07;;;;;;;;;;5057885;28;20110;-78
2023/05/21 04:01:16;;;;;;;9.13;7.07;;;;;;;;;;5057168;28;20051;-79
2023/05/21 04:03:43;;;;;;;8.00;6.20;;;;;;;;;;5040091;28;20046;-79
2023/05/21 04:06:09;;;;;;;10.43;6.80;;;;;;;;;;5038880;28;20122;-78
2023/05/21 04:08:36;;;;;;;9.75;6.95;;;;;;;;;;5037879;28;20046;-79
2023/05/21 04:11:03;;;;;;;9.50;7.10;;;;;;;;;;5036280;28;20111;-79
2023/05/21 04:13:30;;;;;;;8.82;6.43;;;;;;;;;;5035357;28;20072;-78
2023/05/21 04:15:58;;;;;;;9.63;7.03;;;;;;;;;;5035578;28;20132;-78
2023/05/21 04:18:25;;;;;;;9.48;7.15;;;;;;;;;;5035905;28;20472;-79
2023/05/21 04:20:52;;;;;;;9.07;6.82;;;;;;;;;;5037023;28;20049;-79
2023/05/21 04:23:22;;;;;;;9.57;6.90;;;;;;;;;;5035479;28;20050;-79
2023/05/21 04:25:49;;;;;;;9.63;6.93;;;;;;;;;;5035894;28;20049;-78
2023/05/21 04:28:18;;;;;;;9.27;6.63;;;;;;;;;;5035800;28;20049;-78
2023/05/21 04:30:45;;;;;;;10.35;6.53;;;;;;;;;;5035436;28;20059;-79
2023/05/21 04:33:16;;;;;;;9.30;7.10;;;;;;;;;;5034735;28;20111;-77
2023/05/21 04:35:43;;;;;;;9.18;7.15;;;;;;;;;;5035190;28;20068;-78
2023/05/21 04:38:11;;;;;;;10.45;6.25;;;;;;;;;;5035444;28;20041;-79
2023/05/21 04:40:39;;;;;;;10.07;7.18;;;;;;;;;;5035612;28;20172;-79
2023/05/21 04:43:06;;;;;;;10.07;7.35;;;;;;;;;;5035321;28;20107;-78
2023/05/21 04:45:33;;;;;;;8.68;6.90;;;;;;;;;;5034911;28;20575;-77
2023/05/21 04:48:01;;;;;;;9.18;7.10;;;;;;;;;;5075909;22;20403;-78
2023/05/21 04:50:30;;;;;;;9.02;6.43;;;;;;;;;;5057721;28;20079;-78
2023/05/21 04:52:57;;;;;;;8.38;6.30;;;;;;;;;;5057557;28;20060;-77
2023/05/21 04:55:24;;;;;;;7.93;6.30;;;;;;;;;;5058175;28;20080;-78
2023/05/21 04:57:51;;;;;;;10.82;7.18;;;;;;;;;;5057295;28;20049;-77
2023/05/21 05:00:18;;;;;;;9.35;6.18;;;;;;;;;;5057149;28;20099;-78
2023/05/21 05:02:45;;;;;;;8.93;5.90;;;;;;;;;;5056707;28;20128;-78
2023/05/21 05:05:11;;;;;;;8.10;6.55;;;;;;;;;;5056489;28;20056;-78
2023/05/21 05:07:39;;;;;;;8.63;6.35;;;;;;;;;;5056751;28;20128;-78
2023/05/21 05:10:07;;;;;;;7.68;6.40;;;;;;;;;;5057453;28;20136;-78
2023/05/21 05:12:33;;;;;;;10.75;6.60;;;;;;;;;;5062670;28;20049;-77
2023/05/21 05:15:00;;;;;;;9.98;6.53;;;;;;;;;;5063792;28;20060;-77
2023/05/21 05:17:27;;;;;;;8.00;5.95;;;;;;;;;;5063183;28;20129;-77
2023/05/21 05:19:53;;;;;;;8.23;6.10;;;;;;;;;;5060558;28;20079;-77
2023/05/21 05:22:20;;;;;;;8.32;6.45;;;;;;;;;;5061146;28;20120;-78
2023/05/21 05:24:48;;;;;;;8.65;6.60;;;;;;;;;;5058404;28;20045;-78
2023/05/21 05:27:14;;;;;;;10.65;6.88;;;;;;;;;;5057946;28;20125;-78
2023/05/21 05:29:41;;;;;;;9.30;6.25;;;;;;;;;;5059893;28;20051;-78
2023/05/21 05:32:08;;;;;;;9.35;6.60;;;;;;;;;;5065393;28;20111;-77
2023/05/21 05:34:34;;;;;;;10.85;6.32;;;;;;;;;;5063669;28;20048;-78
2023/05/21 05:37:01;;;;;;;10.50;6.40;;;;;;;;;;5061345;28;20040;-77
2023/05/21 05:39:28;;;;;;;8.82;6.93;;;;;;;;;;5069396;28;20045;-77
2023/05/21 05:41:56;;;;;;;9.50;6.57;;;;;;;;;;5069130;28;20045;-78
2023/05/21 05:44:23;;;;;;;8.45;6.80;;;;;;;;;;5065902;28;20049;-77
2023/05/21 05:46:49;;;;;;;9.02;6.78;;;;;;;;;;5070036;28;20140;-77
2023/05/21 05:49:16;;;;;;;8.85;6.55;;;;;;;;;;5069004;28;20052;-77
2023/05/21 05:51:43;;;;;;;10.52;6.68;;;;;;;;;;5070657;28;20280;-77
2023/05/21 05:54:09;;;;;;;9.57;6.15;;;;;;;;;;5070048;28;20044;-77
2023/05/21 05:56:36;;;;;;;8.93;6.65;;;;;;;;;;5070783;28;20446;-77
2023/05/21 05:59:04;;;;;;;8.35;6.07;;;;;;;;;;5070218;28;20049;-77
2023/05/21 06:01:30;;;;;;;9.30;6.30;;;;;;;;;;5062766;28;20044;-78
2023/05/21 06:03:57;;;;;;;8.20;6.20;;;;;;;;;;5060765;28;20052;-78
2023/05/21 06:06:24;;;;;;;8.10;6.55;;;;;;;;;;5060442;28;20518;-78
2023/05/21 06:08:50;;;;;;;9.00;6.55;;;;;;;;;;5060221;28;20072;-78
2023/05/21 06:11:17;;;;;;;8.77;6.55;;;;;;;;;;5060952;28;20124;-77
2023/05/21 06:13:44;;;;;;;9.73;6.35;;;;;;;;;;5059697;28;20076;-78
2023/05/21 06:16:12;;;;;;;8.25;6.07;;;;;;;;;;5059968;28;20072;-78
2023/05/21 06:18:38;;;;;;;10.18;6.95;;;;;;;;;;5060062;28;20131;-78
2023/05/21 06:21:05;;;;;;;8.95;6.57;;;;;;;;;;5060255;28;20051;-78
2023/05/21 06:23:34;;;;;;;7.75;5.72;;;;;;;;;;5060271;28;20047;-78
2023/05/21 06:26:00;;;;;;;9.15;6.30;;;;;;;;;;5064803;28;20090;-78
2023/05/21 06:28:27;;;;;;;8.55;5.90;;;;;;;;;;5070740;28;20084;-78
2023/05/21 06:30:54;;;;;;;9.95;6.53;;;;;;;;;;5061338;28;20049;-77
2023/05/21 06:33:23;;;;;;;9.32;6.07;;;;;;;;;;5060633;28;20105;-78
2023/05/21 06:35:50;;;;;;;8.77;6.03;;;;;;;;;;5067385;28;20045;-78
2023/05/21 06:38:16;;;;;;;9.85;7.03;;;;;;;;;;5067553;28;20059;-77
2023/05/21 06:40:46;;;;;;;8.88;6.10;;;;;;;;;;5067869;28;20041;-77
2023/05/21 06:43:13;;;;;;;8.65;6.07;;;;;;;;;;5068540;28;20041;-77
2023/05/21 06:45:39;;;;;;;9.63;6.43;;;;;;;;;;5067096;28;20073;-77
2023/05/21 06:48:06;;;;;;;8.32;6.60;;;;;;;;;;5065795;28;20079;-78
2023/05/21 06:50:34;;;;;;;8.05;6.15;;;;;;;;;;5064665;28;20045;-78
2023/05/21 06:53:01;;;;;;;7.43;6.38;;;;;;;;;;5062876;28;20057;-78
2023/05/21 06:55:27;;;;;;;8.73;6.25;;;;;;;;;;5060676;28;20392;-78
2023/05/21 06:57:54;;;;;;;8.35;6.40;;;;;;;;;;5060553;28;20108;-78
2023/05/21 07:00:21;;;;;;;8.35;5.88;;;;;;;;;;5059697;28;20045;-79
2023/05/21 07:02:47;;;;;;;8.10;5.80;;;;;;;;;;5061804;28;20053;-77
2023/05/21 07:05:14;;;;;;;7.90;5.75;;;;;;;;;;5053841;28;20517;-77
2023/05/21 07:07:42;;;;;;;7.80;6.25;;;;;;;;;;5053577;28;20131;-77
2023/05/21 07:10:09;;;;;;;7.72;5.80;;;;;;;;;;5053435;28;20049;-76
2023/05/21 07:12:36;;;;;;;7.45;5.68;;;;;;;;;;5052681;28;20087;-77
2023/05/21 07:15:03;;;;;;;9.60;6.47;;;;;;;;;;5053564;28;20123;-77
2023/05/21 07:17:29;;;;;;;8.70;6.45;;;;;;;;;;5053186;28;20124;-77
2023/05/21 07:19:56;;;;;;;7.65;5.80;;;;;;;;;;5053385;28;20075;-76
2023/05/21 07:22:23;;;;;;;8.05;5.80;;;;;;;;;;5052681;28;20104;-76
2023/05/21 07:24:51;;;;;;;7.60;5.82;;;;;;;;;;5053343;28;20045;-75
2023/05/21 07:27:17;;;;;;;8.68;6.00;;;;;;;;;;5052781;28;20045;-78
2023/05/21 07:29:45;;;;;;;9.15;6.25;;;;;;;;;;5053559;28;20049;-76
2023/05/21 07:32:11;;;;;;;8.23;6.00;;;;;;;;;;5052605;28;20495;-77
2023/05/21 07:34:38;;;;;;;9.00;5.97;;;;;;;;;;5052774;28;20111;-77
2023/05/21 07:37:05;;;;;;;9.23;6.57;;;;;;;;;;5053069;28;20080;-77
2023/05/21 07:39:31;;;;;;;8.70;6.53;;;;;;;;;;5052613;28;20506;-78
2023/05/21 07:41:59;;;;;;;9.02;6.20;;;;;;;;;;5052504;28;20084;-76
2023/05/21 07:44:26;;;;;;;8.52;6.40;;;;;;;;;;5052915;28;20187;-76
2023/05/21 07:46:52;;;;;;;7.32;5.97;;;;;;;;;;5052739;28;20642;-76
2023/05/21 07:49:19;;;;;;;8.10;6.10;;;;;;;;;;5052471;28;20049;-77
2023/05/21 07:51:46;;;;;;;9.25;6.00;;;;;;;;;;5052199;28;20557;-76
2023/05/21 07:54:12;;;;;;;8.40;6.43;;;;;;;;;;5052758;28;20080;-76
2023/05/21 07:56:39;;;;;;;9.60;6.63;;;;;;;;;;5051878;28;20494;-76
2023/05/21 07:59:07;;;;;;;8.65;6.68;;;;;;;;;;5052155;28;20041;-76
2023/05/21 08:01:36;;;;;;;8.75;6.60;;;;;;;;;;5052498;28;20051;-78
2023/05/21 08:04:04;;;;;;;8.18;6.25;;;;;;;;;;5052220;28;20519;-76
2023/05/21 08:06:32;;;;;;;9.73;6.65;;;;;;;;;;5052185;28;20041;-77
2023/05/21 08:09:00;;;;;;;8.27;6.43;;;;;;;;;;5052422;28;20045;-76
2023/05/21 08:11:27;;;;;;;10.20;7.00;;;;;;;;;;5052413;28;20045;-76
2023/05/21 08:13:55;;;;;;;8.95;6.50;;;;;;;;;;5052537;28;20049;-78
2023/05/21 08:16:23;;;;;;;9.07;6.55;;;;;;;;;;5052051;28;20083;-76
2023/05/21 08:18:50;;;;;;;9.77;7.22;;;;;;;;;;5053361;28;20466;-76
2023/05/21 08:21:17;;;;;;;8.90;6.40;;;;;;;;;;5052673;28;20474;-77
2023/05/21 08:23:44;;;;;;;8.68;6.72;;;;;;;;;;5052160;28;20106;-77
2023/05/21 08:26:10;;;;;;;11.13;6.93;;;;;;;;;;5052153;28;20472;-78
2023/05/21 08:28:38;;;;;;;8.88;6.82;;;;;;;;;;5052859;28;20135;-76
2023/05/21 08:31:05;;;;;;;9.20;7.05;;;;;;;;;;5052862;28;20087;-76
2023/05/21 08:33:37;;;;;;;10.10;6.38;;;;;;;;;;5052527;28;20051;-76
2023/05/21 08:36:04;;;;;;;8.77;7.38;;;;;;;;;;5051793;28;20045;-77
2023/05/21 08:38:31;;;;;;;8.65;7.00;;;;;;;;;;5052145;28;20109;-77
2023/05/21 08:40:58;;;;;;;10.32;7.05;;;;;;;;;;5051830;28;20107;-76
2023/05/21 08:43:27;;;;;;;7.82;6.28;;;;;;;;;;5051139;28;20518;-76
2023/05/21 08:45:56;;;;;;;8.30;6.10;;;;;;;;;;5051922;28;20143;-76
2023/05/21 08:48:23;;;;;;;9.38;6.72;;;;;;;;;;5052325;28;20045;-76
2023/05/21 08:50:52;;;;;;;9.07;6.90;;;;;;;;;;5051393;28;20045;-77
2023/05/21 08:53:18;;;;;;;8.95;6.93;;;;;;;;;;5051434;28;20495;-76
2023/05/21 08:55:46;;;;;;;11.35;7.15;;;;;;;;;;5051851;28;20048;-76
2023/05/21 08:58:14;;;;;;;8.73;6.88;;;;;;;;;;5051660;28;20408;-77
2023/05/21 09:00:41;;;;;;;10.93;7.78;;;;;;;;;;5051962;28;20083;-77
2023/05/21 09:03:10;;;;;;;10.43;7.20;;;;;;;;;;5051723;28;20072;-77
2023/05/21 09:05:40;;;;;;;10.38;7.68;;;;;;;;;;5052291;28;20114;-78
2023/05/21 09:08:13;;;;;;;;;;;;;;;;;;5059280;28;20049;-78
2023/05/21 09:10:44;;;;;;;10.50;6.88;;;;;;;;;;5062575;28;19931;-78
2023/05/21 09:13:11;;;;;;;9.23;7.00;;;;;;;;;;5061177;28;20128;-77
2023/05/21 09:15:38;;;;;;;8.35;6.57;;;;;;;;;;5062901;28;20072;-78
2023/05/21 09:18:05;;;;;;;9.50;7.75;;;;;;;;;;5062679;28;20423;-78
2023/05/21 09:20:31;;;;;;;10.10;7.20;;;;;;;;;;5062522;28;20140;-79
2023/05/21 09:23:03;;;;;;;9.18;7.07;;;;;;;;;;5060817;28;20103;-78
2023/05/21 09:25:32;;;;;;;11.25;7.40;;;;;;;;;;5063240;28;20682;-79
2023/05/21 09:27:59;;;;;;;8.90;7.32;;;;;;;;;;5062908;28;20057;-79
2023/05/21 09:30:27;;;;;;;10.35;7.30;;;;;;;;;;5061546;28;20099;-77
2023/05/21 09:32:57;;;;;;;9.55;7.13;;;;;;;;;;5058862;28;20128;-77
2023/05/21 09:35:24;;;;;;;11.15;8.57;;;;;;;;;;5057428;28;20564;-78
2023/05/21 09:37:52;;;;;;;10.27;6.78;;;;;;;;;;5063103;28;20109;-79
2023/05/21 09:40:20;;;;;;;9.95;7.10;;;;;;;;;;5063254;28;20597;-79
2023/05/21 09:42:49;;;;;;;9.30;7.70;;;;;;;;;;5062287;28;20049;-79
2023/05/21 09:45:20;;;;;;;9.02;7.68;;;;;;;;;;5062957;28;20044;-79
2023/05/21 09:47:47;;;;;;;9.48;7.00;;;;;;;;;;5060816;28;20049;-78
2023/05/21 09:50:18;;;;;;;8.00;6.72;;;;;;;;;;5061980;28;20135;-77
2023/05/21 09:52:45;;;;;;;8.18;6.57;;;;;;;;;;5061075;28;20049;-78
2023/05/21 09:55:13;;;;;;;9.48;7.60;;;;;;;;;;5061207;28;20114;-78
2023/05/21 09:57:43;;;;;;;9.82;7.30;;;;;;;;;;5060585;28;20156;-78
2023/05/21 10:00:18;;;;;;;8.10;6.95;;;;;;;;;;5060604;28;20063;-78
2023/05/21 10:02:46;;;;;;;8.52;7.25;;;;;;;;;;5057536;28;20037;-78
2023/05/21 10:05:14;;;;;;;8.65;7.05;;;;;;;;;;5057176;28;20052;-78
2023/05/21 10:07:44;;;;;;;8.80;7.28;;;;;;;;;;5060390;28;20056;-78
2023/05/21 10:10:13;;;;;;;10.20;6.80;;;;;;;;;;5061313;28;20476;-79
2023/05/21 10:12:43;;;;;;;8.43;6.50;;;;;;;;;;5060181;28;20049;-78
2023/05/21 10:15:15;;;;;;;10.10;7.25;;;;;;;;;;5061236;28;20144;-78
2023/05/21 10:17:43;;;;;;;12.15;7.43;;;;;;;;;;5060412;28;20069;-78
2023/05/21 10:20:11;;;;;;;10.18;7.63;;;;;;;;;;5057977;28;20490;-77
2023/05/21 10:22:39;;;;;;;8.43;6.70;;;;;;;;;;5055895;28;20133;-77
2023/05/21 10:25:07;;;;;;;9.02;6.82;;;;;;;;;;5058244;28;20049;-78
2023/05/21 10:27:34;;;;;;;8.20;6.60;;;;;;;;;;5055961;28;20124;-78
2023/05/21 10:30:02;;;;;;;9.57;7.43;;;;;;;;;;5059405;28;20049;-77
2023/05/21 10:32:31;;;;;;;10.32;6.60;;;;;;;;;;5059986;28;20045;-78
2023/05/21 10:34:58;;;;;;;8.48;7.15;;;;;;;;;;5060165;28;20087;-79
2023/05/21 10:37:26;;;;;;;8.30;6.53;;;;;;;;;;5060115;28;20120;-79
2023/05/21 10:39:53;;;;;;;9.90;7.85;;;;;;;;;;5055871;28;20055;-78
2023/05/21 10:42:26;;;;;;;10.05;6.43;;;;;;;;;;5055424;28;20139;-78
2023/05/21 10:45:06;;;;;;;8.63;6.78;;;;;;;;;;5055470;28;20132;-78
2023/05/21 10:47:51;;;;;;;7.10;6.30;;;;;;;;;;5055265;28;20055;-78
2023/05/21 10:50:53;;;;;;;9.68;6.75;;;;;;;;;;5055430;28;20051;-77
2023/05/21 10:53:28;;;;;;;8.45;6.25;;;;;;;;;;5043773;28;20199;-77
2023/05/21 10:56:08;;;;;;;9.00;6.60;;;;;;;;;;5054790;28;20128;-77
2023/05/21 10:58:55;;;;;;;9.95;6.93;;;;;;;;;;5054539;28;20520;-77
2023/05/21 11:01:22;;;;;;;8.13;6.28;;;;;;;;;;5055606;28;20072;-77
2023/05/21 11:03:51;;;;;;;7.78;6.47;;;;;;;;;;5053101;28;20048;-77
2023/05/21 11:06:24;;;;;;;8.25;6.53;;;;;;;;;;5054917;28;20124;-77
2023/05/21 11:08:52;;;;;;;9.55;6.38;;;;;;;;;;5053682;28;20080;-78
2023/05/21 11:11:41;;;;;;;8.07;6.43;;;;;;;;;;5053250;28;20416;-77
2023/05/21 11:14:25;;;;;;;9.88;6.75;;;;;;;;;;5052995;28;20416;-77
2023/05/21 11:16:52;;;;;;;7.80;6.22;;;;;;;;;;5053549;28;20152;-77
2023/05/21 11:19:21;;;;;;;9.02;6.47;;;;;;;;;;5052785;28;20052;-77
2023/05/21 11:21:50;;;;;;;8.05;5.95;;;;;;;;;;5054283;28;20049;-78
2023/05/21 11:24:19;;;;;;;8.07;6.72;;;;;;;;;;5053704;28;20052;-78
2023/05/21 11:27:03;;;;;;;7.30;5.82;;;;;;;;;;5056878;28;20055;-78
2023/05/21 11:29:40;;;;;;;8.02;6.30;;;;;;;;;;5057331;28;20048;-78
2023/05/21 11:32:09;;;;;;;8.93;6.72;;;;;;;;;;5055793;28;20052;-77
2023/05/21 11:34:45;;;;;;;9.80;7.15;;;;;;;;;;5061047;28;20041;-77
2023/05/21 11:37:33;;;;;;;7.88;6.68;;;;;;;;;;5055781;28;20045;-77
2023/05/21 11:40:22;;;;;;;9.45;7.05;;;;;;;;;;5055401;28;20045;-77
2023/05/21 11:42:51;;;;;;;9.43;7.57;;;;;;;;;;5054981;28;20573;-77
2023/05/21 11:45:19;;;;;;;7.97;6.78;;;;;;;;;;5055345;28;20048;-78
2023/05/21 11:47:47;;;;;;;10.90;6.78;;;;;;;;;;5054450;28;20049;-77
2023/05/21 11:50:16;;;;;;;8.50;6.55;;;;;;;;;;5053290;28;20063;-77
2023/05/21 11:52:44;;;;;;;8.50;6.43;;;;;;;;;;5053558;28;20048;-77
2023/05/21 11:55:11;;;;;;;9.38;6.75;;;;;;;;;;5053213;28;20044;-77
2023/05/21 11:57:41;;;;;;;8.27;6.50;;;;;;;;;;5052486;28;20055;-77
2023/05/21 12:00:16;;;;;;;8.75;6.53;;;;;;;;;;5052808;28;20148;-77
2023/05/21 12:02:47;;;;;;;8.15;6.43;;;;;;;;;;5051866;28;20487;-77
2023/05/21 12:05:15;;;;;;;8.45;6.90;;;;;;;;;;5052437;28;20127;-77
2023/05/21 12:07:42;;;;;;;8.35;7.35;;;;;;;;;;5054622;28;20083;-78
2023/05/21 12:10:10;;;;;;;8.70;6.95;;;;;;;;;;5055096;28;20056;-77
2023/05/21 12:12:37;;;;;;;9.05;6.60;;;;;;;;;;5052228;28;20045;-78
2023/05/21 12:15:04;;;;;;;8.57;6.50;;;;;;;;;;5052948;28;20210;-78
2023/05/21 12:17:31;;;;;;;8.48;6.32;;;;;;;;;;5054807;28;20045;-79
2023/05/21 12:20:00;;;;;;;7.90;6.10;;;;;;;;;;5053511;28;20090;-76
2023/05/21 12:22:28;;;;;;;8.07;6.30;;;;;;;;;;5053453;28;20111;-77
2023/05/21 12:24:57;;;;;;;7.65;6.60;;;;;;;;;;5054223;28;20106;-76
2023/05/21 12:27:24;;;;;;;11.13;7.07;;;;;;;;;;5053056;28;20119;-77
2023/05/21 12:29:51;;;;;;;9.38;7.40;;;;;;;;;;5053268;28;20191;-77
2023/05/21 12:32:20;;;;;;;9.85;6.93;;;;;;;;;;5055665;28;20140;-76
2023/05/21 12:34:48;;;;;;;8.23;6.65;;;;;;;;;;5063169;28;20074;-76
2023/05/21 12:37:20;;;;;;;8.32;6.70;;;;;;;;;;5056208;28;20095;-76
2023/05/21 12:39:50;;;;;;;8.15;6.50;;;;;;;;;;5054798;28;20056;-77
2023/05/21 12:42:17;;;;;;;9.32;7.00;;;;;;;;;;5058789;28;20045;-77
2023/05/21 12:44:46;;;;;;;8.63;6.78;;;;;;;;;;5061161;28;20049;-77
2023/05/21 12:47:13;;;;;;;8.60;6.25;;;;;;;;;;5060722;28;20109;-77
2023/05/21 12:49:41;;;;;;;8.20;6.20;;;;;;;;;;5059298;28;20053;-78
2023/05/21 12:52:09;;;;;;;8.63;6.78;;;;;;;;;;5052817;28;20048;-77
2023/05/21 12:54:37;;;;;;;8.88;6.18;;;;;;;;;;5052704;28;20056;-77
2023/05/21 12:57:10;;;;;;;7.38;5.95;;;;;;;;;;5051774;28;20353;-77
2023/05/21 12:59:47;;;;;;;7.15;6.13;;;;;;;;;;5052221;28;20478;-77
2023/05/21 13:02:25;;;;;;;8.32;6.78;;;;;;;;;;5053358;28;20041;-78
2023/05/21 13:04:56;;;;;;;8.50;6.97;;;;;;;;;;5052929;28;20102;-78
2023/05/21 13:07:23;;;;;;;8.77;6.55;;;;;;;;;;5051849;28;20049;-77
2023/05/21 13:09:52;;;;;;;7.97;6.97;;;;;;;;;;5058061;28;20079;-77
2023/05/21 13:12:24;;;;;;;8.02;6.95;;;;;;;;;;5059569;28;20099;-78
2023/05/21 13:14:53;;;;;;;8.00;6.22;;;;;;;;;;5061987;28;20072;-78
2023/05/21 13:17:20;;;;;;;7.63;6.10;;;;;;;;;;5060665;28;20131;-78
2023/05/21 13:20:06;;;;;;;9.02;6.47;;;;;;;;;;5058246;28;20128;-77
2023/05/21 13:22:34;;;;;;;7.55;6.50;;;;;;;;;;5055338;28;20055;-78
2023/05/21 13:25:00;;;;;;;9.00;7.05;;;;;;;;;;5055566;28;20142;-78
2023/05/21 13:27:29;;;;;;;16.35;10.65;;;;;;;;;;5053140;28;20136;-78
2023/05/21 13:29:55;;;;;;;9.65;6.82;;;;;;;;;;5052793;28;20049;-78
2023/05/21 13:32:22;;;;;;;7.97;6.50;;;;;;;;;;5051496;28;20208;-77
2023/05/21 13:34:49;;;;;;;8.35;6.97;;;;;;;;;;5051435;28;20072;-77
2023/05/21 13:37:15;;;;;;;7.85;6.70;;;;;;;;;;5051792;28;20124;-77
2023/05/21 13:39:42;;;;;;;7.95;6.93;;;;;;;;;;5051435;28;20524;-78
2023/05/21 13:42:09;;;;;;;7.93;6.47;;;;;;;;;;5051365;28;20132;-77
2023/05/21 13:44:38;;;;;;;10.10;6.60;;;;;;;;;;5051449;28;20049;-77
2023/05/21 13:47:06;;;;;;;8.67;5.83;;;;;;;;;;5051463;28;20053;-78
2023/05/21 13:49:33;;;;;;;8.32;6.63;;;;;;;;;;5051723;28;20144;-78
2023/05/21 13:52:00;;;;;;;7.47;6.07;;;;;;;;;;5051271;28;20143;-79
2023/05/21 13:54:27;;;;;;;7.97;6.28;;;;;;;;;;5051672;28;20044;-78
2023/05/21 13:56:54;;;;;;;8.57;6.75;;;;;;;;;;5055289;28;20049;-76
2023/05/21 13:59:21;;;;;;;8.95;6.38;;;;;;;;;;5056128;28;20052;-78
2023/05/21 14:01:51;;;;;;;7.28;6.38;;;;;;;;;;5056768;28;20055;-78
2023/05/21 14:04:18;;;;;;;6.80;6.00;;;;;;;;;;5036656;28;20140;-78
2023/05/21 14:06:45;;;;;;;7.57;5.72;;;;;;;;;;5036998;28;20057;-78
2023/05/21 14:09:12;;;;;;;8.32;6.13;;;;;;;;;;5037264;28;20061;-78
2023/05/21 14:11:39;;;;;;;7.30;5.97;;;;;;;;;;5040788;28;20072;-77
2023/05/21 14:14:05;;;;;;;7.28;6.20;;;;;;;;;;5042980;28;20053;-77
2023/05/21 14:16:32;;;;;;;8.40;6.97;;;;;;;;;;5043887;28;20057;-78
2023/05/21 14:19:00;;;;;;;8.68;6.63;;;;;;;;;;5035312;28;20484;-78
2023/05/21 14:21:27;;;;;;;9.85;6.20;;;;;;;;;;5034676;28;20042;-77
2023/05/21 14:23:53;;;;;;;8.07;6.13;;;;;;;;;;5035120;28;20125;-77
2023/05/21 14:26:21;;;;;;;7.82;6.45;;;;;;;;;;5035026;28;20053;-77
2023/05/21 14:28:47;;;;;;;7.68;6.18;;;;;;;;;;5034783;28;20053;-77
2023/05/21 14:31:14;;;;;;;7.78;6.30;;;;;;;;;;5034999;28;20085;-77
2023/05/21 14:33:41;;;;;;;7.15;6.45;;;;;;;;;;5034459;28;20487;-77
2023/05/21 14:36:09;;;;;;;7.20;6.05;;;;;;;;;;5035065;28;20155;-77
2023/05/21 14:38:36;;;;;;;8.05;6.60;;;;;;;;;;5034275;28;20583;-78
2023/05/21 14:41:02;;;;;;;7.63;5.65;;;;;;;;;;5041171;28;20049;-77
2023/05/21 14:43:29;;;;;;;8.65;6.20;;;;;;;;;;5040059;28;20045;-77
2023/05/21 14:45:56;;;;;;;9.45;6.22;;;;;;;;;;5039915;28;20067;-77
2023/05/21 14:48:22;;;;;;;8.05;6.50;;;;;;;;;;5040586;28;20045;-77